Decoded Metar for KSNA (SANTA ANA in CA, USA) (IATA:SNA) | Meteo·Mobile Aviation Weather
aviador You're here:

KSNA Decoded Metar

SANTA ANA in CA, USA
Report Time2019-10-22 13:53:00
UTC Time2019-10-22 14:28:40
Flight Rules vfr VFR
WindCalm
Visibility9999 m
Phenomena:N/A
Clouds:N/A
Expected CloudBase > 4,800 ft AGL from Temp-Dew spread
CeilingNone
Temp18°C (ISA +3)
Dew Point06°C (46% RH)
AAT17.1°C
QNH1017 hPa
Density Alt410 ft
Elevation52 ft
Report Wrong Elevation
Raw Report
KSNA 221353Z 00000KT 10SM CLR 18/06 A3004 RMK AO2 SLP172
T01780061=

Extra information for KSNA:More info

Metar Taf Metar & Taf Last 4 Metars F.Rules Stats Wind Profile Meteogram Temp Stats Airport Information Weather charts Add Link Nearby VenuesMetar ALERT Operation Metar Decoded Social comments

AIRNAV info for KSNA